Time;durP1;ratioP1;P1;durP2;ratioP2;P2;SDS_P1;SDS_P2;PMS_P1;PMS_P2;Temp;Humidity;BMP_temperature;BMP_pressure;BME280_temperature;BME280_humidity;BME280_pressure;Samples;Min_cycle;Max_cycle;Signal;HPM_P1;HPM_P2
2022/01/17 00:01:57;;;;;;;10.57;1.85;;;6.50;99.90;;;;;;6221299;23;20019;-91
2022/01/17 00:04:24;;;;;;;12.52;1.02;;;6.50;99.90;;;;;;6221095;23;20016;-93
2022/01/17 00:06:51;;;;;;;12.73;1.98;;;6.50;99.90;;;;;;6196200;23;20082;-91
2022/01/17 00:09:18;;;;;;;8.98;1.50;;;6.50;99.90;;;;;;6195558;23;20019;-91
2022/01/17 00:11:48;;;;;;;7.22;1.20;;;6.50;99.90;;;;;;6247488;23;20016;-92
2022/01/17 00:14:18;;;;;;;11.13;1.83;;;6.50;99.90;;;;;;6199032;23;20074;-92
2022/01/17 00:17:04;;;;;;;9.77;2.15;;;6.50;99.90;;;;;;6220650;23;20036;-91
2022/01/17 00:19:54;;;;;;;14.07;1.70;;;6.40;99.90;;;;;;6221297;23;20020;-91
2022/01/17 00:22:20;;;;;;;15.88;1.60;;;6.40;99.90;;;;;;6229394;23;20018;-92
2022/01/17 00:24:48;;;;;;;8.38;1.27;;;6.40;99.90;;;;;;6195915;23;20356;-92
2022/01/17 00:27:15;;;;;;;11.55;0.93;;;6.40;99.90;;;;;;6195543;23;20024;-92
2022/01/17 00:29:43;;;;;;;11.50;1.30;;;6.40;99.90;;;;;;6220810;23;20020;-91
2022/01/17 00:32:10;;;;;;;12.25;1.10;;;6.40;99.90;;;;;;6220796;23;20055;-91
2022/01/17 00:34:39;;;;;;;8.48;1.75;;;6.40;99.90;;;;;;6221405;23;20020;-91
2022/01/17 00:37:09;;;;;;;8.60;0.90;;;6.40;99.90;;;;;;6196003;23;20044;-91
2022/01/17 00:39:36;;;;;;;12.05;1.42;;;6.40;99.90;;;;;;6220513;23;20028;-91
2022/01/17 00:42:03;;;;;;;8.18;1.85;;;6.40;99.90;;;;;;6220571;23;20016;-92
2022/01/17 00:44:31;;;;;;;8.07;1.48;;;6.40;99.90;;;;;;6220462;23;20019;-92
2022/01/17 00:47:01;;;;;;;6.90;1.27;;;6.40;99.90;;;;;;6195588;23;20391;-91
2022/01/17 00:49:29;;;;;;;8.05;1.27;;;6.30;99.90;;;;;;6221009;23;20391;-91
2022/01/17 00:51:57;;;;;;;6.60;1.60;;;6.30;99.90;;;;;;6195137;23;20027;-92
2022/01/17 00:54:24;;;;;;;4.75;1.30;;;6.30;99.90;;;;;;6195750;23;20103;-92
2022/01/17 00:56:51;;;;;;;9.60;2.30;;;6.30;99.90;;;;;;6220917;23;20444;-91
2022/01/17 00:59:18;;;;;;;12.73;1.90;;;6.30;99.90;;;;;;6195686;23;20031;-91
2022/01/17 01:01:45;;;;;;;9.10;1.42;;;6.30;99.90;;;;;;6195608;23;20070;-91
2022/01/17 01:04:15;;;;;;;10.48;1.17;;;6.30;99.90;;;;;;6220116;23;20047;-91
2022/01/17 01:06:42;;;;;;;14.38;1.48;;;6.30;99.90;;;;;;6194961;23;20012;-91
2022/01/17 01:09:09;;;;;;;7.60;0.98;;;6.30;99.90;;;;;;6203722;23;20016;-91
2022/01/17 01:11:36;;;;;;;12.88;1.65;;;6.30;99.90;;;;;;6198236;23;20027;-91
2022/01/17 01:14:04;;;;;;;12.60;1.30;;;6.30;99.90;;;;;;6195169;23;20384;-90
2022/01/17 01:22:10;;;;;;;8.13;1.15;;;6.30;99.90;;;;;;6219777;23;20020;-90
2022/01/17 01:30:08;;;;;;;13.32;1.83;;;6.20;99.90;;;;;;6219889;23;20016;-91
2022/01/17 01:32:43;;;;;;;10.13;1.50;;;6.20;99.90;;;;;;6220126;23;20019;-90
2022/01/17 01:35:15;;;;;;;7.07;1.48;;;6.20;99.90;;;;;;6204546;22;20008;-91
2022/01/17 01:37:48;;;;;;;18.02;1.27;;;6.20;99.90;;;;;;6196790;23;20020;-91
2022/01/17 01:40:17;;;;;;;10.48;1.58;;;6.20;99.90;;;;;;6194859;23;20023;-91
2022/01/17 01:42:45;;;;;;;8.63;1.42;;;6.20;99.90;;;;;;6195331;23;20016;-90
2022/01/17 01:45:14;;;;;;;15.63;2.25;;;6.20;99.90;;;;;;6220281;23;20016;-91
2022/01/17 01:47:42;;;;;;;9.27;0.98;;;6.20;99.90;;;;;;6195820;23;20076;-92
2022/01/17 01:50:10;;;;;;;9.30;1.55;;;6.10;99.90;;;;;;6195020;23;20063;-89
2022/01/17 01:52:42;;;;;;;6.43;1.02;;;6.10;99.90;;;;;;6220818;23;20042;-92
2022/01/17 01:55:11;;;;;;;8.43;0.93;;;6.10;99.90;;;;;;6229017;23;20024;-91
2022/01/17 01:57:42;;;;;;;9.90;1.67;;;6.20;99.90;;;;;;6229372;23;20040;-92
2022/01/17 02:00:12;;;;;;;11.13;1.45;;;6.10;99.90;;;;;;6247095;22;20020;-91
2022/01/17 02:02:39;;;;;;;9.57;1.05;;;6.10;99.90;;;;;;6202684;23;20020;-91
2022/01/17 02:05:07;;;;;;;3.35;0.65;;;6.10;99.90;;;;;;6206152;23;20023;-91
2022/01/17 02:07:35;;;;;;;7.45;1.63;;;6.10;99.90;;;;;;6195194;23;20020;-90
2022/01/17 02:10:04;;;;;;;7.68;1.52;;;6.10;99.90;;;;;;6219298;23;20020;-90
2022/01/17 02:12:32;;;;;;;8.35;1.23;;;6.10;99.90;;;;;;6220161;23;20020;-90
2022/01/17 02:15:00;;;;;;;9.02;1.77;;;6.10;99.90;;;;;;6219889;23;20070;-90
2022/01/17 02:17:33;;;;;;;6.20;1.00;;;6.10;99.90;;;;;;6196004;23;20016;-90
2022/01/17 02:20:06;;;;;;;4.60;1.30;;;6.10;99.90;;;;;;6221970;23;20024;-91
2022/01/17 02:22:34;;;;;;;14.25;1.23;;;6.10;99.90;;;;;;6248380;23;20087;-89
2022/01/17 02:25:02;;;;;;;9.82;1.50;;;6.10;99.90;;;;;;6196630;23;20020;-91
2022/01/17 02:27:29;;;;;;;4.40;0.60;;;6.10;99.90;;;;;;6196407;23;20016;-91
2022/01/17 02:29:56;;;;;;;8.18;1.20;;;6.10;99.90;;;;;;6221996;23;20023;-91
2022/01/17 02:32:24;;;;;;;11.23;1.60;;;6.10;99.90;;;;;;6197501;23;20027;-90
2022/01/17 02:34:51;;;;;;;8.68;1.17;;;6.10;99.90;;;;;;6221399;23;20048;-91
2022/01/17 02:37:20;;;;;;;4.65;1.00;;;6.10;99.90;;;;;;6221712;23;20022;-90
2022/01/17 02:39:47;;;;;;;13.68;1.30;;;6.10;99.90;;;;;;6196464;23;20123;-91
2022/01/17 02:42:18;;;;;;;7.18;1.33;;;6.10;99.90;;;;;;6200656;23;20008;-92
2022/01/17 02:44:46;;;;;;;9.82;1.40;;;6.10;99.90;;;;;;6197228;23;20020;-91
2022/01/17 02:47:16;;;;;;;13.98;2.08;;;6.10;99.90;;;;;;6196775;23;20021;-90
2022/01/17 02:49:43;;;;;;;6.68;0.93;;;6.10;99.90;;;;;;6204229;23;20012;-89
2022/01/17 02:52:10;;;;;;;13.45;1.58;;;6.10;99.90;;;;;;6199684;23;20020;-91
2022/01/17 02:54:37;;;;;;;4.68;1.63;;;6.10;99.90;;;;;;6196698;23;20020;-90
2022/01/17 02:57:07;;;;;;;10.50;1.45;;;6.10;99.90;;;;;;6196805;23;20023;-90
2022/01/17 02:59:34;;;;;;;10.23;1.25;;;6.10;99.90;;;;;;6221951;23;20020;-91
2022/01/17 03:02:03;;;;;;;26.88;2.55;;;6.10;99.90;;;;;;6197279;23;20024;-91
2022/01/17 03:04:31;;;;;;;12.30;1.20;;;6.10;99.90;;;;;;6196655;23;20074;-91
2022/01/17 03:06:58;;;;;;;12.85;1.33;;;6.10;99.90;;;;;;6196234;23;20016;-91
2022/01/17 03:09:27;;;;;;;8.85;1.30;;;6.10;99.90;;;;;;6224806;23;20016;-91
2022/01/17 03:11:54;;;;;;;6.68;1.17;;;6.10;99.90;;;;;;6196208;23;20016;-91
2022/01/17 03:14:22;;;;;;;20.02;1.98;;;6.10;99.90;;;;;;6195607;23;20012;-91
2022/01/17 03:16:55;;;;;;;14.45;2.00;;;6.10;99.90;;;;;;6222258;23;20091;-90
2022/01/17 03:19:22;;;;;;;12.60;1.90;;;6.20;99.90;;;;;;6221445;23;20074;-91
2022/01/17 03:21:50;;;;;;;7.15;1.25;;;6.20;99.90;;;;;;6196599;23;20024;-90
2022/01/17 03:24:17;;;;;;;12.55;1.80;;;6.20;99.90;;;;;;6196491;23;20016;-90
2022/01/17 03:26:44;;;;;;;9.15;2.05;;;6.20;99.90;;;;;;6196317;23;20099;-92
2022/01/17 03:29:11;;;;;;;11.60;2.00;;;6.20;99.90;;;;;;6195878;23;20070;-91
2022/01/17 03:31:39;;;;;;;11.02;2.05;;;6.20;99.90;;;;;;6221575;23;20012;-91
2022/01/17 03:34:09;;;;;;;5.93;1.05;;;6.20;99.90;;;;;;6221180;23;20471;-90
2022/01/17 03:36:36;;;;;;;4.57;1.10;;;6.20;99.90;;;;;;6196433;23;20106;-91
2022/01/17 03:39:03;;;;;;;12.25;2.00;;;6.20;99.90;;;;;;6247740;22;20016;-90
2022/01/17 03:41:30;;;;;;;12.05;2.38;;;6.20;99.90;;;;;;6197056;23;20024;-90
2022/01/17 03:43:57;;;;;;;11.23;1.80;;;6.20;99.90;;;;;;6221358;23;20017;-91
2022/01/17 03:46:26;;;;;;;10.70;2.50;;;6.20;99.90;;;;;;6196495;23;20285;-91
2022/01/17 03:48:53;;;;;;;10.55;1.92;;;6.20;99.90;;;;;;6195742;23;20027;-90
2022/01/17 03:51:20;;;;;;;11.15;2.65;;;6.20;99.90;;;;;;6196760;23;20085;-91
2022/01/17 03:53:47;;;;;;;9.93;2.75;;;6.20;99.90;;;;;;6195803;23;20035;-92
2022/01/17 03:56:16;;;;;;;8.43;2.60;;;6.20;99.90;;;;;;6222164;23;20047;-92
2022/01/17 03:58:44;;;;;;;11.23;2.65;;;6.20;99.90;;;;;;6226072;23;20432;-91
2022/01/17 04:01:12;;;;;;;15.15;4.15;;;6.20;99.90;;;;;;6195447;23;20495;-92
2022/01/17 04:03:40;;;;;;;10.70;4.15;;;6.20;99.90;;;;;;6195722;23;20058;-92
2022/01/17 04:06:07;;;;;;;9.27;3.15;;;6.20;99.90;;;;;;6231754;23;20043;-91
2022/01/17 04:08:34;;;;;;;12.35;3.47;;;6.20;99.90;;;;;;6220712;23;20012;-91
2022/01/17 04:11:01;;;;;;;28.73;6.28;;;6.20;99.90;;;;;;6220604;23;20082;-90
2022/01/17 04:13:32;;;;;;;13.93;4.45;;;6.20;99.90;;;;;;6196321;23;20028;-90
2022/01/17 04:15:59;;;;;;;14.52;5.07;;;6.10;99.90;;;;;;6221197;23;20363;-90
2022/01/17 04:18:29;;;;;;;18.02;4.07;;;6.20;99.90;;;;;;6221229;23;20091;-91
2022/01/17 04:21:00;;;;;;;16.23;3.83;;;6.10;99.90;;;;;;6220604;23;20032;-91
2022/01/17 04:23:27;;;;;;;13.13;3.83;;;6.10;99.90;;;;;;6201238;23;20016;-90
2022/01/17 04:25:55;;;;;;;8.20;3.97;;;6.10;99.90;;;;;;6220836;23;20016;-91
2022/01/17 04:28:22;;;;;;;15.82;5.13;;;6.10;99.90;;;;;;6246973;22;20046;-91
2022/01/17 04:30:49;;;;;;;22.42;5.43;;;6.10;99.90;;;;;;6220386;23;20430;-92
2022/01/17 04:33:19;;;;;;;14.15;4.93;;;6.10;99.90;;;;;;6196466;23;20444;-90
2022/01/17 04:35:46;;;;;;;18.63;4.43;;;6.10;99.90;;;;;;6195692;23;20074;-91
2022/01/17 04:38:18;;;;;;;8.93;3.67;;;6.10;99.90;;;;;;6220256;22;20095;-91
2022/01/17 04:40:48;;;;;;;9.70;5.03;;;6.10;99.90;;;;;;6220698;23;20047;-92
2022/01/17 04:43:21;;;;;;;13.23;4.28;;;6.10;99.90;;;;;;6247811;23;20016;-93
2022/01/17 04:45:49;;;;;;;10.02;4.60;;;6.10;99.90;;;;;;6220191;23;20035;-92
2022/01/17 04:48:20;;;;;;;15.07;4.80;;;6.10;99.90;;;;;;6220656;22;20016;-91
2022/01/17 04:50:47;;;;;;;19.05;5.63;;;6.10;99.90;;;;;;6246850;23;20008;-91
2022/01/17 04:53:17;;;;;;;12.57;4.70;;;6.10;99.90;;;;;;6195020;23;20100;-90
2022/01/17 04:55:44;;;;;;;13.40;4.95;;;6.10;99.90;;;;;;6220644;23;20084;-91
2022/01/17 04:58:12;;;;;;;13.98;4.32;;;6.10;99.90;;;;;;6227746;22;20032;-90
2022/01/17 05:00:46;;;;;;;13.60;4.30;;;6.10;99.90;;;;;;6227338;23;20026;-90
2022/01/17 05:03:23;;;;;;;15.50;4.32;;;6.10;99.90;;;;;;6196109;23;20339;-91
2022/01/17 05:05:54;;;;;;;13.50;4.13;;;6.10;99.90;;;;;;6204735;23;20339;-92
2022/01/17 05:08:28;;;;;;;16.75;4.30;;;6.10;99.90;;;;;;6233750;22;20020;-91
2022/01/17 05:10:59;;;;;;;27.83;5.00;;;6.10;99.90;;;;;;6196203;23;20343;-90
2022/01/17 05:13:32;;;;;;;18.00;4.28;;;6.10;99.90;;;;;;6194994;23;20066;-90
2022/01/17 05:16:10;;;;;;;15.32;4.97;;;6.10;99.90;;;;;;6221047;23;20471;-89
2022/01/17 05:21:13;;;;;;;18.73;4.28;;;6.10;99.90;;;;;;6247443;23;20016;-91
2022/01/17 05:27:12;;;;;;;19.33;4.30;;;6.10;99.90;;;;;;6219989;23;20043;-90
2022/01/17 05:29:39;;;;;;;21.63;4.95;;;6.10;99.90;;;;;;6219488;23;20047;-91
2022/01/17 05:32:11;;;;;;;11.85;2.58;;;6.10;99.90;;;;;;6195640;23;20020;-90
2022/01/17 05:34:40;;;;;;;13.57;4.25;;;6.10;99.90;;;;;;6202704;22;20008;-89
2022/01/17 05:37:09;;;;;;;10.15;3.22;;;6.10;99.90;;;;;;6196966;23;20500;-90
2022/01/17 05:39:36;;;;;;;20.23;3.78;;;6.10;99.90;;;;;;6219632;23;20016;-90
2022/01/17 05:42:05;;;;;;;12.65;3.35;;;6.10;99.90;;;;;;6219547;23;20328;-90
2022/01/17 05:44:32;;;;;;;12.63;3.33;;;6.10;99.90;;;;;;6219125;23;20012;-90
2022/01/17 05:47:00;;;;;;;16.00;5.00;;;6.10;99.90;;;;;;6195108;23;20020;-88
2022/01/17 05:49:27;;;;;;;13.27;2.47;;;6.10;99.90;;;;;;6194476;23;20016;-90
2022/01/17 05:51:54;;;;;;;26.73;3.63;;;6.10;99.90;;;;;;6220259;23;20115;-91
2022/01/17 05:54:20;;;;;;;15.65;3.72;;;6.20;99.90;;;;;;6220983;23;20070;-90
2022/01/17 05:56:50;;;;;;;18.10;4.45;;;6.20;99.90;;;;;;6195062;23;20355;-90
2022/01/17 05:59:17;;;;;;;15.07;2.25;;;6.20;99.90;;;;;;6194292;23;20399;-89
2022/01/17 06:01:44;;;;;;;15.25;2.60;;;6.20;99.90;;;;;;6219624;23;20065;-89
2022/01/17 06:04:11;;;;;;;18.95;2.60;;;6.20;99.90;;;;;;6219296;23;20019;-89
2022/01/17 06:06:38;;;;;;;12.63;2.45;;;6.20;99.90;;;;;;6194541;23;20086;-90
2022/01/17 06:09:05;;;;;;;18.25;3.38;;;6.20;99.90;;;;;;6194524;23;20127;-89
2022/01/17 06:11:34;;;;;;;14.45;2.22;;;6.20;99.90;;;;;;6219666;23;20020;-90
2022/01/17 06:14:01;;;;;;;13.48;2.63;;;6.20;99.90;;;;;;6195026;23;20020;-90
2022/01/17 06:16:30;;;;;;;17.05;2.85;;;6.20;99.90;;;;;;6246575;23;20070;-90
2022/01/17 06:18:57;;;;;;;20.80;2.38;;;6.20;99.90;;;;;;6194353;23;20102;-89
2022/01/17 06:21:26;;;;;;;21.85;3.65;;;6.30;99.90;;;;;;6220227;23;20012;-91
2022/01/17 06:23:53;;;;;;;20.77;3.15;;;6.20;99.90;;;;;;6194238;23;20347;-91
2022/01/17 06:26:21;;;;;;;14.15;3.10;;;6.30;99.90;;;;;;6194395;23;20040;-89
2022/01/17 06:28:48;;;;;;;11.68;1.98;;;6.30;99.90;;;;;;6219141;23;20020;-89
2022/01/17 06:31:15;;;;;;;10.10;3.25;;;6.30;99.90;;;;;;6195499;23;20016;-90
2022/01/17 06:33:42;;;;;;;16.88;2.67;;;6.30;99.90;;;;;;6219392;23;20027;-91
2022/01/17 06:36:09;;;;;;;20.55;2.50;;;6.30;99.90;;;;;;6219338;23;20020;-90
2022/01/17 06:38:36;;;;;;;16.50;3.65;;;6.30;99.90;;;;;;6194354;23;20024;-90
2022/01/17 06:41:03;;;;;;;20.27;2.05;;;6.30;99.90;;;;;;6194106;23;20043;-89
2022/01/17 06:43:30;;;;;;;22.52;3.80;;;6.30;99.90;;;;;;6223907;23;20012;-91
2022/01/17 06:45:57;;;;;;;17.67;3.03;;;6.30;99.90;;;;;;6219302;23;20123;-89
2022/01/17 06:48:25;;;;;;;10.68;2.17;;;6.40;99.90;;;;;;6219330;22;20092;-89
2022/01/17 06:50:52;;;;;;;26.85;3.35;;;6.30;99.90;;;;;;6204857;23;20095;-89
2022/01/17 06:53:19;;;;;;;17.48;2.00;;;6.40;99.90;;;;;;6194264;23;20074;-89
2022/01/17 06:55:45;;;;;;;17.35;2.83;;;6.40;99.90;;;;;;6194851;23;20024;-89
2022/01/17 06:58:12;;;;;;;13.75;2.00;;;6.40;99.90;;;;;;6218944;22;20133;-90
2022/01/17 07:00:39;;;;;;;21.25;2.55;;;6.40;99.90;;;;;;6195332;23;20090;-90
2022/01/17 07:03:06;;;;;;;21.42;2.42;;;6.40;99.90;;;;;;6219385;23;20078;-90
2022/01/17 07:05:33;;;;;;;20.27;2.13;;;6.50;99.90;;;;;;6196021;23;20393;-90
2022/01/17 07:08:00;;;;;;;15.82;3.00;;;6.40;99.90;;;;;;6196031;23;20030;-90
2022/01/17 07:10:28;;;;;;;22.92;3.47;;;6.40;99.90;;;;;;6220910;23;20050;-89
2022/01/17 07:12:56;;;;;;;10.20;2.70;;;6.50;99.90;;;;;;6195861;23;20027;-89
2022/01/17 07:15:23;;;;;;;17.55;2.28;;;6.40;99.90;;;;;;6196035;23;20050;-89
2022/01/17 07:17:50;;;;;;;18.38;2.72;;;6.40;99.90;;;;;;6220766;23;20082;-90
2022/01/17 07:20:17;;;;;;;12.50;2.13;;;6.40;99.90;;;;;;6196461;23;20047;-89
2022/01/17 07:22:44;;;;;;;13.10;1.50;;;6.50;99.90;;;;;;6247759;23;20016;-90
2022/01/17 07:25:11;;;;;;;18.05;3.22;;;6.50;99.90;;;;;;6195956;23;20043;-90
2022/01/17 07:27:40;;;;;;;23.85;3.97;;;6.50;99.90;;;;;;6195730;23;20020;-89
2022/01/17 07:30:09;;;;;;;9.48;1.83;;;6.50;99.90;;;;;;6195826;23;20043;-89
2022/01/17 07:32:36;;;;;;;11.52;2.03;;;6.50;99.90;;;;;;6220775;23;20019;-89
2022/01/17 07:35:05;;;;;;;15.38;1.90;;;6.50;99.90;;;;;;6221257;23;20020;-90
2022/01/17 07:37:33;;;;;;;22.25;2.95;;;6.50;99.90;;;;;;6196018;23;20066;-89
2022/01/17 07:40:00;;;;;;;23.55;2.38;;;6.50;99.90;;;;;;6221310;23;20012;-90
2022/01/17 07:42:28;;;;;;;21.45;3.60;;;6.50;99.90;;;;;;6221007;23;20024;-90
2022/01/17 07:44:57;;;;;;;21.58;4.32;;;6.50;99.90;;;;;;6196482;23;20012;-88
2022/01/17 07:48:43;;;;;;;14.10;1.95;;;6.60;99.90;;;;;;6221113;23;20027;-89
2022/01/17 07:50:16;;;;;;;19.58;2.78;;;6.60;99.90;;;;;;6201101;23;20035;-89
2022/01/17 07:52:43;;;;;;;11.38;1.95;;;6.60;99.90;;;;;;6196759;23;20016;-89
2022/01/17 07:55:11;;;;;;;13.90;3.25;;;6.60;99.90;;;;;;6211333;23;20024;-89
2022/01/17 07:57:38;;;;;;;20.65;2.92;;;6.60;99.90;;;;;;6217499;23;20020;-89
2022/01/17 08:00:09;;;;;;;15.13;2.13;;;6.60;99.90;;;;;;6216076;23;20047;-90
2022/01/17 08:02:44;;;;;;;10.13;1.77;;;6.60;99.90;;;;;;6223592;23;20032;-90
2022/01/17 08:05:14;;;;;;;21.05;2.63;;;6.60;99.90;;;;;;6220695;23;20343;-89
2022/01/17 08:07:42;;;;;;;19.27;2.67;;;6.70;99.90;;;;;;6194896;23;20024;-90
2022/01/17 08:10:13;;;;;;;18.52;2.63;;;6.60;99.90;;;;;;6192632;23;20055;-90
2022/01/17 08:12:42;;;;;;;21.50;3.03;;;6.60;99.90;;;;;;6189962;23;20050;-90
2022/01/17 08:15:11;;;;;;;11.85;2.55;;;6.70;99.90;;;;;;6193565;23;20047;-91
2022/01/17 08:17:38;;;;;;;18.67;2.35;;;6.60;99.90;;;;;;6220118;23;20043;-90
2022/01/17 08:20:06;;;;;;;7.68;1.80;;;6.60;99.90;;;;;;6195197;23;20016;-90
2022/01/17 08:22:33;;;;;;;12.30;1.73;;;6.70;99.90;;;;;;6195406;23;20119;-90
2022/01/17 08:25:00;;;;;;;15.70;3.40;;;6.70;99.90;;;;;;6220277;23;20093;-90
2022/01/17 08:27:27;;;;;;;19.23;2.25;;;6.70;99.90;;;;;;6195045;23;20016;-90
2022/01/17 08:29:55;;;;;;;16.52;2.85;;;6.70;99.90;;;;;;6195108;23;20023;-90
2022/01/17 08:32:42;;;;;;;18.17;3.55;;;6.70;99.90;;;;;;6199685;23;20048;-90
2022/01/17 08:35:09;;;;;;;19.13;2.08;;;6.70;99.90;;;;;;6195359;23;20081;-90
2022/01/17 08:37:37;;;;;;;20.73;3.15;;;6.70;99.90;;;;;;6220704;23;20016;-91
2022/01/17 08:40:05;;;;;;;29.98;4.30;;;6.70;99.90;;;;;;6195982;23;20036;-89
2022/01/17 08:42:37;;;;;;;21.13;2.95;;;6.70;99.90;;;;;;6195411;23;20119;-89
2022/01/17 08:45:07;;;;;;;21.73;3.75;;;6.80;99.90;;;;;;6195263;23;20051;-89
2022/01/17 08:47:46;;;;;;;21.50;2.63;;;6.80;99.90;;;;;;6196867;23;20035;-90
2022/01/17 08:50:13;;;;;;;26.30;2.80;;;6.80;99.90;;;;;;6195627;23;20074;-89
2022/01/17 08:52:39;;;;;;;16.67;2.85;;;6.80;99.90;;;;;;6195657;23;20027;-90
2022/01/17 08:55:07;;;;;;;26.70;2.40;;;6.80;99.90;;;;;;6220784;23;20016;-90
2022/01/17 08:57:33;;;;;;;11.48;2.28;;;6.80;99.90;;;;;;6195219;23;20081;-91
2022/01/17 09:00:01;;;;;;;18.45;2.40;;;6.80;99.90;;;;;;6220825;23;20039;-91
2022/01/17 09:02:28;;;;;;;16.05;2.42;;;6.80;99.90;;;;;;6220603;23;20462;-90
2022/01/17 09:04:55;;;;;;;24.15;3.38;;;6.90;99.90;;;;;;6220185;23;20027;-91
2022/01/17 09:07:22;;;;;;;15.02;2.38;;;6.90;99.90;;;;;;6246811;23;20016;-90
2022/01/17 09:09:49;;;;;;;15.00;4.57;;;6.90;99.90;;;;;;6220514;23;20012;-89
2022/01/17 09:12:17;;;;;;;34.50;5.25;;;6.90;99.90;;;;;;6195268;23;20016;-91
2022/01/17 09:14:43;;;;;;;21.02;4.28;;;6.90;99.90;;;;;;6219921;23;20047;-90
2022/01/17 09:17:11;;;;;;;17.00;4.70;;;6.90;99.90;;;;;;6220053;23;20024;-90
2022/01/17 09:19:40;;;;;;;16.25;3.15;;;6.90;99.90;;;;;;6219502;23;20044;-90
2022/01/17 09:22:08;;;;;;;32.17;3.72;;;6.90;99.90;;;;;;6219647;23;20024;-89
2022/01/17 09:24:37;;;;;;;19.27;2.35;;;7.00;99.90;;;;;;6219655;23;20066;-90
2022/01/17 09:27:06;;;;;;;28.80;4.85;;;7.00;99.90;;;;;;6194790;23;20016;-90
2022/01/17 09:29:34;;;;;;;17.27;2.60;;;6.90;99.90;;;;;;6219709;23;20020;-91
2022/01/17 09:32:02;;;;;;;22.52;2.83;;;6.90;99.90;;;;;;6195054;23;20027;-91
2022/01/17 09:34:29;;;;;;;23.48;3.78;;;6.90;99.90;;;;;;6220011;23;20016;-90
2022/01/17 09:36:56;;;;;;;18.63;3.72;;;6.90;99.90;;;;;;6195091;23;20107;-89
2022/01/17 09:39:23;;;;;;;14.18;3.05;;;6.90;99.90;;;;;;6194830;23;20028;-90
2022/01/17 09:41:50;;;;;;;21.50;4.22;;;7.00;99.90;;;;;;6246561;23;20027;-91
2022/01/17 09:44:17;;;;;;;14.55;3.03;;;7.00;99.90;;;;;;6220639;23;20119;-89
2022/01/17 09:46:47;;;;;;;9.95;2.38;;;7.00;99.90;;;;;;6219984;23;20394;-90
2022/01/17 09:54:31;;;;;;;21.27;2.63;;;7.10;99.90;;;;;;6246569;23;20024;-90
2022/01/17 09:57:01;;;;;;;12.30;2.83;;;7.20;99.90;;;;;;6194556;23;20020;-91
2022/01/17 09:59:30;;;;;;;22.38;3.20;;;7.20;99.90;;;;;;6220404;23;20047;-90
2022/01/17 10:01:57;;;;;;;24.67;2.92;;;7.20;99.90;;;;;;6195123;23;20074;-90
2022/01/17 10:04:24;;;;;;;15.35;3.28;;;7.30;99.90;;;;;;6194506;23;20020;-91
2022/01/17 10:06:56;;;;;;;20.38;3.65;;;7.30;99.90;;;;;;6195186;23;20092;-90
2022/01/17 10:09:25;;;;;;;18.27;3.60;;;7.30;99.90;;;;;;6194292;23;20038;-91
2022/01/17 10:12:00;;;;;;;23.33;4.78;;;7.30;99.90;;;;;;6220271;23;20015;-90
2022/01/17 10:14:29;;;;;;;22.58;4.90;;;7.30;99.90;;;;;;6205439;23;20074;-91
2022/01/17 10:16:56;;;;;;;18.90;3.38;;;7.40;99.90;;;;;;6194230;23;20044;-89
2022/01/17 10:19:26;;;;;;;15.93;3.55;;;7.40;99.90;;;;;;6194800;23;20024;-90
2022/01/17 10:21:56;;;;;;;18.20;2.80;;;7.40;99.90;;;;;;6194939;23;20089;-91
2022/01/17 10:27:14;;;;;;;21.77;3.40;;;7.40;99.90;;;;;;6219362;23;20024;-89
2022/01/17 10:30:24;;;;;;;20.05;4.72;;;7.40;99.90;;;;;;6194713;23;20494;-90
2022/01/17 10:35:34;;;;;;;33.65;5.32;;;7.50;99.90;;;;;;6219532;23;20074;-90
2022/01/17 10:38:10;;;;;;;26.65;3.03;;;7.50;99.90;;;;;;6219004;23;20044;-90
2022/01/17 10:40:44;;;;;;;15.30;2.20;;;7.50;99.90;;;;;;6196192;23;20028;-90
2022/01/17 10:43:25;;;;;;;22.27;3.15;;;7.50;99.90;;;;;;6221226;23;20475;-90
2022/01/17 10:45:55;;;;;;;27.20;3.22;;;7.60;99.90;;;;;;6196315;23;20526;-90
2022/01/17 10:48:29;;;;;;;19.55;3.83;;;7.60;99.90;;;;;;6221110;22;20027;-89
2022/01/17 10:50:56;;;;;;;16.73;3.22;;;7.60;99.90;;;;;;6221255;23;20467;-90
2022/01/17 10:53:23;;;;;;;22.45;2.95;;;7.60;99.90;;;;;;6196199;23;20103;-90
2022/01/17 10:55:53;;;;;;;33.08;4.70;;;7.60;99.90;;;;;;6221464;23;20024;-90
2022/01/17 10:58:29;;;;;;;32.13;7.00;;;7.60;99.90;;;;;;6220891;22;20066;-90
2022/01/17 11:01:00;;;;;;;25.60;4.32;;;7.70;99.90;;;;;;6221401;23;20024;-90
2022/01/17 11:03:30;;;;;;;30.48;3.10;;;7.70;99.90;;;;;;6196279;23;20024;-90
2022/01/17 11:06:02;;;;;;;28.70;3.63;;;7.70;99.90;;;;;;6221457;23;20089;-90
2022/01/17 11:08:30;;;;;;;33.28;3.75;;;7.70;99.90;;;;;;6196119;23;20100;-91
2022/01/17 11:11:00;;;;;;;18.52;3.17;;;7.70;99.90;;;;;;6206775;23;20027;-90
2022/01/17 11:13:30;;;;;;;15.95;2.70;;;7.70;99.90;;;;;;6196333;23;20016;-91
2022/01/17 11:16:00;;;;;;;24.67;4.50;;;7.70;99.90;;;;;;6221239;23;20024;-90
2022/01/17 11:18:29;;;;;;;27.75;3.13;;;7.80;99.90;;;;;;6196677;23;20151;-89
2022/01/17 11:21:11;;;;;;;26.17;3.83;;;7.70;99.90;;;;;;6221067;23;20047;-90
2022/01/17 11:24:07;;;;;;;28.05;4.45;;;7.80;99.90;;;;;;6221982;23;20024;-92
2022/01/17 11:26:34;;;;;;;27.95;4.10;;;7.90;99.90;;;;;;6190741;23;20016;-92
2022/01/17 11:29:02;;;;;;;23.08;4.53;;;7.90;99.90;;;;;;6227004;23;20066;-90
2022/01/17 11:31:32;;;;;;;19.23;3.28;;;7.80;99.90;;;;;;6196963;23;20036;-93
2022/01/17 11:41:34;;;;;;;19.58;3.00;;;7.90;99.90;;;;;;6235364;22;20035;-90
2022/01/17 11:55:56;;;;;;;18.02;3.85;;;8.00;99.90;;;;;;6248489;23;20019;-93
2022/01/17 11:58:39;;;;;;;28.25;3.72;;;8.00;99.90;;;;;;6245953;23;20054;-94
2022/01/17 12:04:22;;;;;;;19.13;3.83;;;8.00;99.90;;;;;;6202314;23;20458;-94
2022/01/17 12:07:05;;;;;;;26.23;2.97;;;8.10;99.90;;;;;;6246461;23;20020;-92
2022/01/17 12:09:44;;;;;;;29.45;3.03;;;8.10;99.90;;;;;;6198175;23;20384;-93
2022/01/17 12:12:15;;;;;;;15.90;2.72;;;8.20;99.90;;;;;;6221195;23;20020;-91
2022/01/17 12:14:54;;;;;;;25.63;3.22;;;8.10;99.90;;;;;;6196953;23;20048;-92
2022/01/17 12:18:48;;;;;;;24.02;5.05;;;8.20;99.90;;;;;;6221454;23;20012;-93
2022/01/17 12:21:44;;;;;;;24.65;4.68;;;8.20;99.90;;;;;;6221946;23;20020;-92
2022/01/17 12:24:18;;;;;;;19.75;5.07;;;8.20;99.90;;;;;;6226062;23;20020;-93
2022/01/17 12:27:03;;;;;;;25.67;3.30;;;8.20;99.90;;;;;;6199977;23;20024;-89
2022/01/17 12:29:43;;;;;;;25.40;3.45;;;8.30;99.90;;;;;;6221436;23;20024;-91
2022/01/17 12:32:20;;;;;;;29.73;5.50;;;8.30;99.90;;;;;;6221626;23;20103;-90
2022/01/17 12:34:48;;;;;;;22.90;3.42;;;8.30;99.90;;;;;;6247698;23;20044;-93
2022/01/17 12:37:39;;;;;;;32.65;4.95;;;8.30;99.90;;;;;;6221922;23;20044;-92
2022/01/17 12:40:13;;;;;;;21.02;3.15;;;8.30;99.90;;;;;;6220722;23;20070;-91
2022/01/17 12:43:06;;;;;;;24.55;4.57;;;8.40;99.90;;;;;;6199881;23;20016;-92
2022/01/17 12:45:55;;;;;;;30.38;5.38;;;8.40;99.90;;;;;;6221785;23;20008;-90
2022/01/17 12:48:24;;;;;;;29.15;3.83;;;8.40;99.90;;;;;;6221110;23;20020;-91
2022/01/17 12:50:53;;;;;;;24.42;4.30;;;8.40;99.90;;;;;;6269656;22;20039;-90
2022/01/17 12:53:25;;;;;;;17.50;3.15;;;8.40;99.90;;;;;;6225543;22;20016;-91
2022/01/17 12:55:54;;;;;;;20.73;4.25;;;8.40;99.90;;;;;;6250780;22;20031;-91
2022/01/17 12:58:28;;;;;;;26.60;4.10;;;8.40;99.90;;;;;;6251030;22;20023;-91
2022/01/17 13:00:58;;;;;;;14.60;2.95;;;8.40;99.90;;;;;;6225929;22;20039;-91
2022/01/17 13:03:29;;;;;;;14.25;3.28;;;8.50;99.90;;;;;;6251374;22;20391;-91
2022/01/17 13:05:59;;;;;;;27.25;3.38;;;8.50;99.90;;;;;;6250894;22;20042;-90
2022/01/17 13:08:26;;;;;;;31.90;4.60;;;8.50;99.90;;;;;;6277595;22;20522;-90
2022/01/17 13:10:55;;;;;;;24.00;4.63;;;8.50;99.90;;;;;;6251450;22;20091;-91
2022/01/17 13:13:23;;;;;;;16.05;2.67;;;8.50;99.90;;;;;;6251107;22;20011;-91
2022/01/17 13:16:11;;;;;;;24.23;3.90;;;8.50;99.90;;;;;;6278189;22;20074;-90
2022/01/17 13:18:38;;;;;;;18.83;3.25;;;8.50;99.90;;;;;;6225427;22;20020;-91
2022/01/17 13:21:05;;;;;;;18.30;3.72;;;8.50;99.90;;;;;;6277706;22;20045;-92
2022/01/17 13:23:49;;;;;;;14.80;2.60;;;8.50;99.90;;;;;;6225069;22;20024;-90
2022/01/17 13:26:21;;;;;;;21.33;3.65;;;8.50;99.90;;;;;;6260648;22;20043;-90
2022/01/17 13:28:53;;;;;;;21.63;3.05;;;8.50;99.90;;;;;;6264017;22;20193;-89
2022/01/17 13:31:28;;;;;;;27.70;4.53;;;8.60;99.90;;;;;;6251915;22;20035;-90
2022/01/17 13:34:08;;;;;;;19.92;3.15;;;8.50;99.90;;;;;;6251151;22;20023;-90
2022/01/17 13:36:37;;;;;;;23.60;2.63;;;8.60;99.90;;;;;;6278146;22;20440;-88
2022/01/17 13:39:06;;;;;;;20.92;3.30;;;8.60;99.90;;;;;;6283475;22;20090;-92
2022/01/17 13:41:34;;;;;;;32.05;3.75;;;8.60;99.90;;;;;;6229384;22;20401;-90
2022/01/17 13:44:02;;;;;;;15.13;3.10;;;8.60;99.90;;;;;;6250659;22;20024;-91
2022/01/17 13:46:29;;;;;;;24.95;3.85;;;8.60;99.90;;;;;;6225461;22;20046;-91
2022/01/17 13:48:56;;;;;;;14.43;3.15;;;8.60;99.90;;;;;;6251630;22;20007;-92
2022/01/17 13:51:25;;;;;;;21.90;3.40;;;8.60;99.90;;;;;;6225997;22;20313;-92
2022/01/17 13:53:54;;;;;;;28.10;6.15;;;8.60;99.90;;;;;;6224694;22;20015;-89